createdAt,value
2024-02-02T00:00:57.871Z,131.98
2024-02-02T00:03:25.526Z,123.00
2024-02-02T00:05:53.212Z,125.00
2024-02-02T00:08:21.712Z,124.55
2024-02-02T00:10:49.010Z,127.28
2024-02-02T00:13:16.376Z,129.52
2024-02-02T00:15:43.774Z,129.00
2024-02-02T00:18:11.358Z,131.63
2024-02-02T00:20:39.266Z,133.35
2024-02-02T00:23:06.699Z,124.78
2024-02-02T00:25:33.940Z,122.25
2024-02-02T00:28:01.344Z,130.23
2024-02-02T00:30:36.489Z,127.65
2024-02-02T00:33:04.274Z,129.50
2024-02-02T00:35:31.641Z,132.15
2024-02-02T00:37:58.828Z,129.32
2024-02-02T00:40:30.439Z,135.23
2024-02-02T00:42:57.677Z,128.98
2024-02-02T00:45:25.148Z,125.70
2024-02-02T00:47:52.598Z,127.45
2024-02-02T00:50:19.871Z,127.20
2024-02-02T00:52:47.184Z,122.55
2024-02-02T00:55:14.414Z,127.78
2024-02-02T00:57:41.678Z,130.30
2024-02-02T01:00:12.198Z,133.15
2024-02-02T01:02:40.669Z,132.30
2024-02-02T01:05:09.832Z,132.68
2024-02-02T01:07:38.353Z,130.18
2024-02-02T01:10:07.289Z,127.05
2024-02-02T01:12:35.777Z,134.63
2024-02-02T01:15:03.595Z,139.07
2024-02-02T01:17:31.416Z,143.00
2024-02-02T01:20:04.456Z,140.68
2024-02-02T01:22:31.952Z,150.32
2024-02-02T01:25:05.309Z,146.65
2024-02-02T01:27:33.455Z,109.87
2024-02-02T01:30:00.707Z,134.90
2024-02-02T01:32:27.972Z,149.63
2024-02-02T01:34:55.695Z,146.55
2024-02-02T01:37:22.920Z,139.95
2024-02-02T01:39:50.069Z,136.95
2024-02-02T01:42:17.421Z,141.63
2024-02-02T01:44:44.835Z,127.55
2024-02-02T01:47:13.126Z,135.13
2024-02-02T01:49:41.299Z,138.90
2024-02-02T01:52:09.213Z,133.80
2024-02-02T01:54:37.201Z,137.43
2024-02-02T01:57:04.975Z,130.02
2024-02-02T01:59:32.743Z,128.48
2024-02-02T02:02:00.106Z,124.10
2024-02-02T02:04:27.566Z,129.48
2024-02-02T02:06:55.854Z,134.68
2024-02-02T02:09:23.214Z,135.02
2024-02-02T02:11:51.875Z,128.02
2024-02-02T02:14:19.528Z,140.70
2024-02-02T02:16:46.871Z,136.65
2024-02-02T02:19:18.169Z,128.05
2024-02-02T02:21:45.459Z,121.80
2024-02-02T02:24:13.664Z,125.97
2024-02-02T02:26:42.985Z,125.32
2024-02-02T02:29:10.294Z,124.88
2024-02-02T02:31:37.519Z,117.28
2024-02-02T02:34:04.850Z,122.28
2024-02-02T02:36:32.269Z,120.32
2024-02-02T02:38:59.898Z,120.15
2024-02-02T02:41:27.162Z,120.80
2024-02-02T02:43:55.599Z,123.65
2024-02-02T02:46:22.796Z,118.13
2024-02-02T02:48:50.549Z,123.60
2024-02-02T02:51:18.356Z,121.90
2024-02-02T02:53:45.474Z,115.93
2024-02-02T02:56:12.668Z,116.93
2024-02-02T02:58:39.833Z,108.65
2024-02-02T03:01:07.008Z,114.05
2024-02-02T03:03:34.356Z,113.47
2024-02-02T03:06:01.718Z,114.57
2024-02-02T03:08:30.189Z,106.55
2024-02-02T03:10:59.306Z,107.50
2024-02-02T03:13:26.812Z,112.90
2024-02-02T03:15:54.105Z,106.68
2024-02-02T03:18:21.525Z,98.53
2024-02-02T03:20:49.031Z,97.82
2024-02-02T03:23:16.311Z,106.78
2024-02-02T03:25:43.463Z,107.35
2024-02-02T03:28:10.608Z,108.07
2024-02-02T03:30:37.926Z,103.97
2024-02-02T03:33:09.390Z,100.85
2024-02-02T03:35:37.533Z,110.60
2024-02-02T03:38:04.903Z,101.07
2024-02-02T03:40:32.077Z,102.40
2024-02-02T03:42:59.293Z,101.35
2024-02-02T03:45:27.026Z,107.68
2024-02-02T03:47:54.579Z,95.47
2024-02-02T03:50:21.754Z,103.75
2024-02-02T03:52:49.012Z,101.68
2024-02-02T03:55:16.180Z,98.13
2024-02-02T03:57:45.139Z,90.70
2024-02-02T04:00:16.789Z,91.05
2024-02-02T04:02:47.426Z,96.80
2024-02-02T04:05:18.424Z,93.20
2024-02-02T04:07:45.732Z,92.05
2024-02-02T04:10:13.502Z,91.45
2024-02-02T04:12:40.928Z,94.05
2024-02-02T04:15:08.890Z,83.88
2024-02-02T04:17:36.058Z,88.18
2024-02-02T04:20:04.126Z,90.25
2024-02-02T04:22:31.513Z,84.55
2024-02-02T04:24:58.912Z,86.47
2024-02-02T04:27:26.132Z,88.63
2024-02-02T04:29:53.680Z,79.80
2024-02-02T04:32:20.846Z,79.72
2024-02-02T04:34:48.114Z,81.03
2024-02-02T04:37:15.315Z,75.70
2024-02-02T04:39:43.548Z,73.60
2024-02-02T04:42:10.743Z,83.78
2024-02-02T04:44:38.165Z,76.13
2024-02-02T04:47:05.236Z,70.28
2024-02-02T04:49:32.553Z,68.88
2024-02-02T04:51:59.769Z,68.63
2024-02-02T04:54:28.495Z,60.60
2024-02-02T04:56:56.013Z,70.47
2024-02-02T04:59:23.478Z,57.63
2024-02-02T05:01:51.210Z,58.47
2024-02-02T05:04:18.832Z,51.08
2024-02-02T05:06:45.975Z,50.05
2024-02-02T05:09:13.101Z,50.28
2024-02-02T05:11:40.272Z,58.78
2024-02-02T05:14:07.462Z,62.38
2024-02-02T05:16:34.646Z,53.95
2024-02-02T05:19:02.745Z,52.70
2024-02-02T05:21:31.134Z,47.42
2024-02-02T05:24:08.241Z,53.10
2024-02-02T05:26:45.833Z,61.00
2024-02-02T05:29:13.995Z,60.30
2024-02-02T05:31:41.236Z,70.18
2024-02-02T05:34:08.554Z,68.00
2024-02-02T05:36:35.843Z,63.25
2024-02-02T05:39:03.222Z,85.00
2024-02-02T05:41:31.805Z,66.47
2024-02-02T05:43:59.144Z,64.78
2024-02-02T05:46:26.269Z,77.03
2024-02-02T05:48:53.674Z,72.10
2024-02-02T05:51:21.693Z,51.55
2024-02-02T05:53:48.879Z,56.22
2024-02-02T05:56:16.004Z,49.22
2024-02-02T05:58:43.157Z,49.00
2024-02-02T06:01:10.384Z,49.25
2024-02-02T06:03:37.860Z,53.75
2024-02-02T06:06:06.480Z,49.55
2024-02-02T06:08:33.951Z,54.03
2024-02-02T06:11:01.329Z,51.33
2024-02-02T06:13:28.640Z,46.65
2024-02-02T06:15:55.724Z,58.83
2024-02-02T06:18:23.126Z,51.85
2024-02-02T06:20:50.339Z,43.35
2024-02-02T06:23:17.835Z,48.25
2024-02-02T06:25:45.523Z,54.47
2024-02-02T06:28:15.017Z,53.28
2024-02-02T06:30:49.362Z,51.00
2024-02-02T06:35:45.680Z,48.97
2024-02-02T06:38:14.218Z,49.40
2024-02-02T06:40:41.389Z,42.35
2024-02-02T06:43:08.593Z,47.13
2024-02-02T06:45:36.292Z,46.90
2024-02-02T06:48:03.827Z,39.42
2024-02-02T06:50:32.426Z,44.15
2024-02-02T06:52:59.664Z,36.97
2024-02-02T06:55:26.787Z,43.28
2024-02-02T06:57:54.353Z,55.03
2024-02-02T07:00:21.986Z,38.67
2024-02-02T07:02:50.361Z,40.00
2024-02-02T07:05:17.654Z,52.83
2024-02-02T07:07:45.161Z,41.22
2024-02-02T07:10:17.234Z,36.60
2024-02-02T07:12:50.698Z,41.83
2024-02-02T07:15:22.818Z,49.33
2024-02-02T07:17:51.164Z,41.95
2024-02-02T07:20:24.734Z,43.58
2024-02-02T07:22:54.003Z,43.40
2024-02-02T07:25:22.982Z,46.60
2024-02-02T07:27:52.984Z,36.72
2024-02-02T07:30:37.846Z,34.90
2024-02-02T07:33:19.527Z,37.92
2024-02-02T07:35:47.071Z,30.80
2024-02-02T07:38:50.142Z,32.85
2024-02-02T07:41:23.588Z,35.17
2024-02-02T07:43:54.227Z,30.40
2024-02-02T07:46:22.280Z,36.47
2024-02-02T07:48:51.840Z,32.58
2024-02-02T07:51:20.110Z,33.53
2024-02-02T07:53:47.738Z,34.45
2024-02-02T07:56:17.833Z,37.05
2024-02-02T07:58:45.249Z,32.38
2024-02-02T08:01:12.874Z,36.08
2024-02-02T08:03:40.831Z,33.42
2024-02-02T08:06:08.645Z,35.17
2024-02-02T08:08:37.435Z,32.10
2024-02-02T08:11:04.953Z,29.27
2024-02-02T08:13:32.673Z,25.88
2024-02-02T08:16:00.538Z,29.80
2024-02-02T08:18:29.694Z,29.33
2024-02-02T08:20:57.503Z,25.63
2024-02-02T08:23:26.851Z,25.15
2024-02-02T08:25:54.444Z,25.35
2024-02-02T08:28:23.261Z,25.00
2024-02-02T08:30:50.886Z,30.88
2024-02-02T08:33:18.688Z,24.02
2024-02-02T08:35:46.381Z,20.98
2024-02-02T08:38:15.787Z,19.88
2024-02-02T08:40:46.680Z,23.05
2024-02-02T08:43:24.090Z,19.98
2024-02-02T08:46:14.921Z,19.65
2024-02-02T08:48:47.040Z,19.02
2024-02-02T08:51:24.186Z,19.60
2024-02-02T08:54:15.953Z,18.38
2024-02-02T08:57:24.329Z,19.02
2024-02-02T08:59:54.102Z,21.05
2024-02-02T09:03:00.250Z,14.93
2024-02-02T09:05:54.328Z,18.33
2024-02-02T09:08:34.576Z,15.95
2024-02-02T09:11:02.721Z,15.25
2024-02-02T09:13:35.631Z,15.77
2024-02-02T09:16:03.492Z,17.02
2024-02-02T09:18:38.098Z,18.80
2024-02-02T09:21:06.347Z,18.40
2024-02-02T09:23:34.636Z,16.45
2024-02-02T09:26:08.736Z,18.02
2024-02-02T09:28:40.242Z,16.40
2024-02-02T09:31:08.272Z,16.90
2024-02-02T09:33:48.748Z,17.20
2024-02-02T09:36:16.401Z,21.35
2024-02-02T09:38:55.751Z,17.35
2024-02-02T09:41:54.495Z,16.30
2024-02-02T09:44:43.326Z,17.38
2024-02-02T09:47:24.717Z,19.98
2024-02-02T09:50:15.636Z,20.10
2024-02-02T09:52:58.727Z,17.00
2024-02-02T09:55:40.850Z,19.38
2024-02-02T09:58:25.399Z,17.35
2024-02-02T10:01:03.718Z,12.82
2024-02-02T10:03:55.555Z,10.80
2024-02-02T10:06:33.262Z,9.95
2024-02-02T10:09:28.315Z,12.50
2024-02-02T10:15:02.686Z,12.60
2024-02-02T10:17:52.324Z,13.25
2024-02-02T10:20:37.046Z,19.10
2024-02-02T10:26:02.440Z,13.98
2024-02-02T10:28:45.324Z,18.50
2024-02-02T10:31:18.912Z,13.73
2024-02-02T10:34:17.740Z,20.17
2024-02-02T10:37:15.642Z,14.52
2024-02-02T10:40:01.516Z,16.42
2024-02-02T10:42:47.619Z,24.35
2024-02-02T10:45:33.659Z,16.02
2024-02-02T10:48:19.711Z,16.13
2024-02-02T10:51:01.254Z,17.27
2024-02-02T10:53:35.104Z,15.70
2024-02-02T10:56:17.093Z,14.45
2024-02-02T10:59:09.029Z,18.65
2024-02-02T11:01:58.591Z,20.85
2024-02-02T11:04:34.753Z,13.73
2024-02-02T11:07:13.885Z,13.93
2024-02-02T11:09:57.878Z,15.18
2024-02-02T11:12:36.035Z,15.48
2024-02-02T11:15:06.164Z,17.23
2024-02-02T11:17:38.791Z,20.13
2024-02-02T11:20:16.897Z,13.75
2024-02-02T11:22:53.321Z,11.38
2024-02-02T11:25:32.195Z,13.55
2024-02-02T11:28:10.841Z,19.98
2024-02-02T11:30:59.149Z,21.23
2024-02-02T11:33:49.301Z,9.63
2024-02-02T11:36:41.850Z,15.73
2024-02-02T11:39:24.222Z,17.15
2024-02-02T11:41:52.934Z,13.45
2024-02-02T11:44:20.919Z,16.33
2024-02-02T11:46:50.947Z,14.23
2024-02-02T11:49:25.380Z,19.70
2024-02-02T11:52:00.304Z,16.45
2024-02-02T11:54:44.922Z,11.23
2024-02-02T11:57:18.261Z,18.67
2024-02-02T11:59:49.899Z,16.10
2024-02-02T12:02:21.692Z,13.40
2024-02-02T12:04:53.953Z,15.18
2024-02-02T12:08:00.863Z,16.33
2024-02-02T12:10:31.192Z,18.85
2024-02-02T12:13:07.738Z,16.90
2024-02-02T12:15:35.381Z,19.23
2024-02-02T12:18:04.288Z,22.38
2024-02-02T12:20:32.325Z,12.98
2024-02-02T12:22:59.934Z,11.93
2024-02-02T12:25:29.204Z,16.88
2024-02-02T12:27:57.197Z,10.98
2024-02-02T12:30:25.413Z,17.17
2024-02-02T12:32:55.418Z,14.85
2024-02-02T12:35:28.226Z,16.55
2024-02-02T12:37:56.855Z,11.38
2024-02-02T12:40:25.235Z,14.13
2024-02-02T12:42:54.108Z,12.77
2024-02-02T12:45:21.754Z,12.02
2024-02-02T12:47:49.139Z,11.13
2024-02-02T12:50:17.456Z,11.88
2024-02-02T12:52:51.868Z,18.95
2024-02-02T12:55:22.545Z,11.05
2024-02-02T12:57:52.385Z,13.77
2024-02-02T13:00:22.857Z,11.30
2024-02-02T13:02:55.590Z,13.88
2024-02-02T13:05:27.603Z,11.38
2024-02-02T13:07:55.207Z,10.82
2024-02-02T13:10:37.638Z,15.63
2024-02-02T13:13:20.687Z,14.45
2024-02-02T13:15:48.135Z,11.52
2024-02-02T13:18:21.236Z,12.00
2024-02-02T13:20:51.172Z,16.17
2024-02-02T13:23:26.691Z,13.88
2024-02-02T13:26:02.254Z,15.55
2024-02-02T13:28:30.960Z,13.25
2024-02-02T13:31:00.517Z,13.23
2024-02-02T13:33:32.907Z,11.35
2024-02-02T13:36:03.197Z,11.02
2024-02-02T13:38:35.121Z,14.73
2024-02-02T13:41:02.965Z,12.88
2024-02-02T13:43:30.199Z,21.10
2024-02-02T13:46:08.876Z,12.85
2024-02-02T13:48:45.394Z,12.60
2024-02-02T13:51:13.383Z,11.13
2024-02-02T13:53:40.764Z,15.13
2024-02-02T13:56:11.112Z,12.82
2024-02-02T13:58:40.382Z,9.25
2024-02-02T14:01:15.421Z,9.80
2024-02-02T14:03:42.973Z,11.20
2024-02-02T14:06:10.354Z,12.80
2024-02-02T14:08:45.347Z,10.65
2024-02-02T14:11:31.669Z,8.57
2024-02-02T14:13:59.573Z,13.10
2024-02-02T14:16:28.592Z,16.95
2024-02-02T14:19:06.426Z,11.82
2024-02-02T14:21:36.048Z,9.65
2024-02-02T14:24:08.098Z,9.13
2024-02-02T14:26:36.117Z,13.48
2024-02-02T14:29:04.801Z,19.67
2024-02-02T14:31:33.753Z,13.85
2024-02-02T14:34:01.058Z,13.60
2024-02-02T14:36:28.576Z,15.23
2024-02-02T14:38:55.977Z,16.27
2024-02-02T14:41:23.307Z,15.75
2024-02-02T14:43:50.583Z,10.82
2024-02-02T14:46:21.815Z,15.48
2024-02-02T14:48:49.145Z,14.00
2024-02-02T14:51:18.089Z,13.73
2024-02-02T14:53:45.428Z,13.13
2024-02-02T14:56:12.772Z,19.45
2024-02-02T14:58:41.108Z,15.45
2024-02-02T15:01:14.811Z,15.75
2024-02-02T15:03:45.136Z,13.68
2024-02-02T15:06:13.750Z,19.88
2024-02-02T15:08:41.886Z,17.38
2024-02-02T15:11:10.327Z,15.18
2024-02-02T15:13:38.225Z,12.30
2024-02-02T15:16:08.479Z,14.43
2024-02-02T15:18:36.348Z,14.82
2024-02-02T15:21:03.935Z,13.98
2024-02-02T15:23:31.103Z,18.20
2024-02-02T15:25:58.424Z,14.60
2024-02-02T15:28:25.845Z,13.63
2024-02-02T15:30:53.598Z,15.60
2024-02-02T15:33:21.634Z,18.33
2024-02-02T15:35:49.191Z,15.30
2024-02-02T15:38:17.215Z,18.63
2024-02-02T15:40:44.912Z,20.17
2024-02-02T15:43:13.960Z,20.88
2024-02-02T15:45:43.180Z,16.10
2024-02-02T15:48:11.561Z,15.35
2024-02-02T15:50:38.778Z,13.95
2024-02-02T15:53:05.978Z,17.35
2024-02-02T15:55:33.178Z,15.13
2024-02-02T15:58:00.716Z,12.10
2024-02-02T16:00:27.939Z,15.35
2024-02-02T16:02:56.247Z,19.40
2024-02-02T16:05:23.616Z,18.98
2024-02-02T16:07:50.885Z,16.05
2024-02-02T16:10:18.365Z,15.43
2024-02-02T16:12:45.869Z,17.73
2024-02-02T16:15:13.372Z,11.07
2024-02-02T16:17:41.247Z,15.35
2024-02-02T16:20:12.690Z,14.13
2024-02-02T16:22:40.951Z,18.67
2024-02-02T16:25:13.399Z,19.20
2024-02-02T16:27:40.901Z,18.25
2024-02-02T16:30:09.311Z,14.50
2024-02-02T16:32:36.880Z,19.55
2024-02-02T16:35:05.728Z,24.42
2024-02-02T16:37:32.998Z,23.20
2024-02-02T16:40:00.247Z,26.00
2024-02-02T16:42:28.017Z,21.80
2024-02-02T16:44:55.319Z,23.00
2024-02-02T16:47:22.518Z,34.47
2024-02-02T16:49:50.510Z,31.90
2024-02-02T16:52:17.728Z,27.38
2024-02-02T16:54:46.727Z,24.60
2024-02-02T16:57:14.229Z,27.23
2024-02-02T16:59:43.522Z,21.27
2024-02-02T17:02:11.044Z,30.77
2024-02-02T17:04:38.448Z,25.02
2024-02-02T17:07:06.797Z,25.92
2024-02-02T17:09:39.620Z,29.23
2024-02-02T17:12:10.059Z,32.97
2024-02-02T17:14:39.940Z,29.40
2024-02-02T17:17:07.155Z,44.42
2024-02-02T17:19:35.018Z,32.28
2024-02-02T17:22:02.297Z,33.00
2024-02-02T17:24:30.897Z,36.67
2024-02-02T17:26:58.062Z,34.70
2024-02-02T17:29:25.289Z,35.00
2024-02-02T17:31:53.079Z,35.75
2024-02-02T17:34:20.435Z,30.50
2024-02-02T17:36:47.893Z,36.15
2024-02-02T17:39:15.455Z,36.80
2024-02-02T17:41:43.562Z,37.17
2024-02-02T17:44:10.763Z,31.95
2024-02-02T17:46:38.517Z,45.75
2024-02-02T17:49:05.734Z,33.13
2024-02-02T17:51:33.164Z,41.28
2024-02-02T17:54:01.894Z,31.60
2024-02-02T17:56:29.589Z,28.40
2024-02-02T17:58:56.994Z,30.30
2024-02-02T18:01:24.679Z,29.05
2024-02-02T18:03:53.113Z,30.20
2024-02-02T18:06:21.344Z,39.97
2024-02-02T18:08:48.650Z,33.20
2024-02-02T18:11:17.237Z,33.42
2024-02-02T18:13:44.383Z,29.45
2024-02-02T18:16:16.202Z,29.02
2024-02-02T18:18:43.759Z,36.22
2024-02-02T18:21:11.300Z,29.48
2024-02-02T18:23:38.684Z,29.42
2024-02-02T18:26:06.824Z,26.38
2024-02-02T18:28:34.040Z,34.40
2024-02-02T18:31:01.570Z,25.35
2024-02-02T18:33:28.909Z,31.02
2024-02-02T18:35:56.712Z,32.17
2024-02-02T18:38:23.880Z,34.30
2024-02-02T18:40:51.366Z,44.85
2024-02-02T18:43:19.605Z,33.33
2024-02-02T18:45:46.890Z,36.72
2024-02-02T18:48:14.359Z,39.38
2024-02-02T18:50:41.967Z,34.70
2024-02-02T18:53:09.198Z,32.85
2024-02-02T18:55:36.397Z,32.00
2024-02-02T18:58:03.819Z,41.80
2024-02-02T19:00:32.078Z,38.05
2024-02-02T19:02:59.473Z,36.08
2024-02-02T19:05:26.912Z,41.92
2024-02-02T19:07:54.517Z,38.08
2024-02-02T19:10:22.485Z,34.33
2024-02-02T19:12:49.689Z,36.55
2024-02-02T19:15:17.121Z,38.75
2024-02-02T19:17:44.692Z,33.42
2024-02-02T19:20:12.304Z,38.33
2024-02-02T19:22:40.119Z,31.70
2024-02-02T19:25:09.017Z,28.15
2024-02-02T19:27:36.374Z,35.75
2024-02-02T19:30:03.882Z,42.78
2024-02-02T19:32:31.868Z,36.08
2024-02-02T19:34:59.138Z,30.20
2024-02-02T19:37:26.350Z,27.05
2024-02-02T19:39:53.685Z,29.50
2024-02-02T19:42:21.764Z,28.45
2024-02-02T19:44:48.940Z,24.67
2024-02-02T19:47:16.148Z,24.58
2024-02-02T19:49:44.134Z,32.70
2024-02-02T19:52:11.414Z,28.70
2024-02-02T19:54:38.739Z,25.20
2024-02-02T19:57:10.101Z,25.27
2024-02-02T19:59:37.275Z,23.90
2024-02-02T20:02:04.692Z,22.75
2024-02-02T20:04:32.276Z,26.30
2024-02-02T20:06:59.590Z,26.83
2024-02-02T20:09:26.850Z,27.90
2024-02-02T20:11:54.746Z,26.33
2024-02-02T20:14:22.040Z,27.10
2024-02-02T20:16:51.389Z,30.45
2024-02-02T20:19:20.056Z,31.92
2024-02-02T20:21:49.280Z,33.47
2024-02-02T20:24:16.574Z,27.38
2024-02-02T20:26:44.157Z,22.52
2024-02-02T20:29:12.893Z,27.02
2024-02-02T20:32:07.960Z,22.38
2024-02-02T20:34:57.293Z,27.02
2024-02-02T20:37:24.600Z,27.48
2024-02-02T20:39:51.784Z,28.52
2024-02-02T20:42:20.588Z,28.98
2024-02-02T20:44:48.290Z,30.90
2024-02-02T20:47:15.586Z,36.05
2024-02-02T20:49:45.286Z,37.83
2024-02-02T20:52:14.273Z,25.05
2024-02-02T20:54:41.886Z,45.00
2024-02-02T20:57:09.217Z,33.60
2024-02-02T20:59:36.593Z,38.05
2024-02-02T21:02:04.603Z,39.28
2024-02-02T21:04:32.595Z,39.97
2024-02-02T21:07:07.973Z,42.45
2024-02-02T21:09:38.566Z,40.83
2024-02-02T21:12:08.318Z,49.10
2024-02-02T21:14:35.678Z,37.42
2024-02-02T21:17:03.051Z,38.80
2024-02-02T21:19:32.341Z,41.20
2024-02-02T21:22:02.618Z,37.97
2024-02-02T21:24:29.857Z,49.33
2024-02-02T21:26:57.069Z,41.58
2024-02-02T21:29:25.510Z,44.90
2024-02-02T21:31:52.689Z,45.30
2024-02-02T21:34:19.853Z,45.90
2024-02-02T21:36:47.117Z,43.80
2024-02-02T21:39:14.592Z,40.20
2024-02-02T21:41:41.982Z,39.08
2024-02-02T21:44:10.797Z,37.05
2024-02-02T21:46:38.017Z,36.10
2024-02-02T21:49:08.070Z,42.85
2024-02-02T21:51:36.105Z,34.97
2024-02-02T21:54:03.984Z,38.83
2024-02-02T21:56:31.244Z,36.30
2024-02-02T21:59:06.495Z,33.40
2024-02-02T22:02:12.303Z,27.52
2024-02-02T22:04:39.462Z,31.08
2024-02-02T22:07:06.840Z,32.38
2024-02-02T22:09:34.426Z,24.70
2024-02-02T22:12:01.607Z,26.23
2024-02-02T22:14:33.746Z,24.10
2024-02-02T22:17:00.947Z,25.23
2024-02-02T22:19:28.755Z,25.17
2024-02-02T22:21:56.110Z,23.10
2024-02-02T22:24:23.356Z,19.52
2024-02-02T22:26:50.772Z,21.42
2024-02-02T22:29:17.933Z,25.17
2024-02-02T22:31:45.084Z,24.63
2024-02-02T22:34:12.806Z,24.33
2024-02-02T22:36:40.824Z,24.73
2024-02-02T22:39:08.195Z,22.23
2024-02-02T22:41:35.566Z,26.92
2024-02-02T22:44:03.603Z,24.10
2024-02-02T22:46:32.332Z,24.20
2024-02-02T22:49:00.526Z,26.80
2024-02-02T22:51:28.444Z,30.10
2024-02-02T22:53:55.652Z,28.05
2024-02-02T22:56:22.889Z,33.08
2024-02-02T22:58:50.068Z,28.73
2024-02-02T23:01:17.738Z,21.63
2024-02-02T23:03:45.303Z,26.42
2024-02-02T23:06:12.595Z,25.10
2024-02-02T23:08:40.073Z,25.50
2024-02-02T23:11:08.166Z,29.45
2024-02-02T23:13:35.288Z,19.30
2024-02-02T23:16:03.037Z,22.92
2024-02-02T23:18:31.209Z,23.17
2024-02-02T23:21:00.302Z,23.45
2024-02-02T23:23:27.716Z,25.80
2024-02-02T23:25:54.819Z,25.02
2024-02-02T23:28:22.432Z,27.02
2024-02-02T23:30:50.365Z,26.80
2024-02-02T23:33:17.935Z,25.08
2024-02-02T23:35:45.235Z,20.63
2024-02-02T23:38:12.415Z,20.85
2024-02-02T23:40:40.340Z,24.10
2024-02-02T23:43:07.540Z,20.38
2024-02-02T23:45:35.470Z,21.80
2024-02-02T23:48:02.640Z,22.67
2024-02-02T23:50:29.846Z,25.83
2024-02-02T23:52:57.052Z,21.67
2024-02-02T23:55:24.226Z,27.45
2024-02-02T23:57:52.069Z,23.45
